Time;durP1;ratioP1;P1;durP2;ratioP2;P2;SDS_P1;SDS_P2;PMS_P1;PMS_P2;Temp;Humidity;BMP_temperature;BMP_pressure;BME280_temperature;BME280_humidity;BME280_pressure;Samples;Min_cycle;Max_cycle;Signal;HPM_P1;HPM_P2
2023/05/05 00:01:24;;;;;;;0.60;0.60;;;;;;;14.75;100.00;100530.97;5091390;28;20198;-74
2023/05/05 00:03:51;;;;;;;0.70;0.70;;;;;;;14.98;100.00;100601.59;5091598;28;20198;-75
2023/05/05 00:06:18;;;;;;;0.70;0.70;;;;;;;15.10;100.00;100612.97;5091759;28;20212;-76
2023/05/05 00:08:45;;;;;;;0.70;0.70;;;;;;;15.01;100.00;100617.28;5091110;28;20198;-75
2023/05/05 00:11:11;;;;;;;0.70;0.70;;;;;;;15.02;100.00;100593.78;5091378;28;20198;-76
2023/05/05 00:13:38;;;;;;;0.70;0.70;;;;;;;15.13;100.00;100615.59;5091951;28;20271;-76
2023/05/05 00:16:05;;;;;;;0.60;0.60;;;;;;;15.16;100.00;100614.78;5091180;28;20198;-75
2023/05/05 00:18:34;;;;;;;0.93;0.93;;;;;;;15.11;100.00;100619.97;5068660;28;20195;-76
2023/05/05 00:21:01;;;;;;;1.15;1.15;;;;;;;15.07;100.00;100628.63;5072202;28;20226;-75
2023/05/05 00:23:28;;;;;;;0.60;0.60;;;;;;;14.93;100.00;100612.03;5091211;28;20200;-75
2023/05/05 00:25:54;;;;;;;0.70;0.70;;;;;;;15.01;100.00;100623.38;5069463;28;20207;-75
2023/05/05 00:28:21;;;;;;;0.70;0.70;;;;;;;14.75;100.00;100607.56;5088659;28;20281;-75
2023/05/05 00:30:48;;;;;;;0.70;0.70;;;;;;;14.94;100.00;100618.13;5091201;28;20259;-75
2023/05/05 00:33:15;;;;;;;0.70;0.70;;;;;;;14.83;100.00;100616.31;5090919;28;20251;-75
2023/05/05 00:35:43;;;;;;;0.60;0.60;;;;;;;14.84;100.00;100612.81;5091327;28;20196;-76
2023/05/05 00:38:10;;;;;;;0.60;0.60;;;;;;;14.67;100.00;100601.41;5091359;28;20221;-76
2023/05/05 00:40:37;;;;;;;0.70;0.70;;;;;;;14.72;100.00;100614.50;5090649;28;20218;-75
2023/05/05 00:43:04;;;;;;;0.60;0.60;;;;;;;14.64;100.00;100613.56;5088915;28;20285;-75
2023/05/05 00:45:31;;;;;;;0.70;0.70;;;;;;;14.51;100.00;100610.00;5089993;28;20267;-75
2023/05/05 00:47:59;;;;;;;0.60;0.60;;;;;;;14.59;100.00;100613.53;5086330;28;20292;-75
2023/05/05 00:50:27;;;;;;;0.70;0.70;;;;;;;14.42;100.00;100581.22;5090882;28;20213;-75
2023/05/05 00:52:57;;;;;;;0.80;0.80;;;;;;;14.76;100.00;100606.72;5090791;28;20208;-75
2023/05/05 00:55:24;;;;;;;0.60;0.60;;;;;;;14.59;100.00;100607.47;5091465;28;20217;-75
2023/05/05 00:57:52;;;;;;;0.60;0.60;;;;;;;14.38;100.00;100590.75;5090418;28;20208;-75
2023/05/05 01:00:18;;;;;;;0.65;0.65;;;;;;;14.44;100.00;100615.16;5060649;28;20249;-75
2023/05/05 01:02:45;;;;;;;0.60;0.60;;;;;;;14.38;100.00;100610.75;5070544;28;20198;-76
2023/05/05 01:05:14;;;;;;;0.93;0.93;;;;;;;14.28;100.00;100611.50;5090343;28;20209;-75
2023/05/05 01:08:02;;;;;;;0.80;0.80;;;;;;;14.31;100.00;100612.41;5062036;28;20199;-75
2023/05/05 01:10:36;;;;;;;0.70;0.70;;;;;;;14.21;100.00;100610.59;5071441;28;20214;-75
2023/05/05 01:13:25;;;;;;;0.60;0.60;;;;;;;14.25;100.00;100607.16;5090918;28;20237;-75
2023/05/05 01:15:59;;;;;;;0.65;0.65;;;;;;;14.33;100.00;100615.91;5090391;28;20235;-75
2023/05/05 01:18:32;;;;;;;0.70;0.70;;;;;;;14.21;100.00;100589.72;5066042;28;20194;-76
2023/05/05 01:21:06;;;;;;;0.60;0.60;;;;;;;14.23;100.00;100593.19;5090790;28;20217;-75
2023/05/05 01:24:27;;;;;;;0.80;0.80;;;;;;;14.45;100.00;100607.31;5090846;28;20276;-75
2023/05/05 01:27:26;;;;;;;0.60;0.60;;;;;;;14.35;100.00;100603.78;5089766;28;20202;-75
2023/05/05 01:30:08;;;;;;;0.60;0.60;;;;;;;14.43;100.00;100605.56;5090568;28;20661;-75
2023/05/05 01:32:43;;;;;;;0.68;0.68;;;;;;;14.43;100.00;100596.03;5090409;28;20231;-75
2023/05/05 01:35:15;;;;;;;0.60;0.60;;;;;;;14.55;100.00;100600.47;5091123;28;20193;-75
2023/05/05 01:37:49;;;;;;;0.70;0.70;;;;;;;14.26;100.00;100593.25;5090438;28;20202;-75
2023/05/05 01:40:19;;;;;;;0.70;0.70;;;;;;;14.29;100.00;100598.50;5091120;28;20672;-75
2023/05/05 01:42:48;;;;;;;0.70;0.70;;;;;;;14.25;100.00;100595.84;5094497;28;20226;-75
2023/05/05 01:45:17;;;;;;;0.70;0.70;;;;;;;14.36;100.00;100595.09;5095839;28;20236;-75
2023/05/05 01:47:46;;;;;;;0.63;0.63;;;;;;;14.35;100.00;100595.97;5094806;28;20233;-75
2023/05/05 01:50:16;;;;;;;0.63;0.63;;;;;;;14.42;100.00;100594.25;5097735;28;20206;-75
2023/05/05 01:52:45;;;;;;;0.70;0.70;;;;;;;14.36;100.00;100589.88;5091422;28;20205;-76
2023/05/05 01:55:14;;;;;;;0.60;0.60;;;;;;;14.34;100.00;100575.94;5090254;28;20264;-75
2023/05/05 01:57:43;;;;;;;0.70;0.70;;;;;;;14.43;100.00;100574.28;5054893;28;20198;-75
2023/05/05 02:00:11;;;;;;;0.65;0.65;;;;;;;14.39;100.00;100573.38;5090742;28;20226;-75
2023/05/05 02:02:40;;;;;;;0.60;0.60;;;;;;;14.42;100.00;100582.94;5054487;28;20225;-75
2023/05/05 02:05:10;;;;;;;0.68;0.68;;;;;;;14.31;100.00;100570.66;5090473;28;20210;-75
2023/05/05 02:07:37;;;;;;;0.80;0.80;;;;;;;14.38;100.00;100584.66;5089922;28;20277;-75
2023/05/05 02:10:06;;;;;;;0.60;0.60;;;;;;;14.58;100.00;100585.69;5090678;28;20213;-75
2023/05/05 02:12:35;;;;;;;0.70;0.70;;;;;;;14.35;100.00;100577.69;5071431;28;20202;-67
2023/05/05 02:15:03;;;;;;;0.70;0.70;;;;;;;14.51;100.00;100578.69;5090505;28;20236;-75
2023/05/05 02:17:31;;;;;;;0.73;0.73;;;;;;;14.49;100.00;100576.91;5092323;28;20210;-75
2023/05/05 02:20:01;;;;;;;0.60;0.60;;;;;;;14.51;100.00;100575.19;5093359;28;20217;-75
2023/05/05 02:22:30;;;;;;;0.60;0.60;;;;;;;14.67;100.00;100574.44;5074923;28;20209;-75
2023/05/05 02:24:57;;;;;;;0.55;0.55;;;;;;;14.72;100.00;100588.41;5038904;28;20203;-74
2023/05/05 02:27:25;;;;;;;0.60;0.60;;;;;;;14.69;100.00;100578.81;5093567;28;20206;-74
2023/05/05 02:29:58;;;;;;;0.70;0.70;;;;;;;14.82;100.00;100579.75;5093838;28;20213;-74
2023/05/05 02:32:33;;;;;;;0.60;0.60;;;;;;;14.84;100.00;100578.00;5093640;28;20194;-74
2023/05/05 02:35:09;;;;;;;0.70;0.70;;;;;;;14.63;100.00;100575.28;5093596;28;20217;-74
2023/05/05 02:37:39;;;;;;;0.70;0.70;;;;;;;14.81;100.00;100580.59;5093015;28;20201;-74
2023/05/05 02:40:08;;;;;;;0.70;0.70;;;;;;;14.92;100.00;100584.16;5093155;28;20218;-74
2023/05/05 02:42:39;;;;;;;0.57;0.57;;;;;;;14.86;100.00;100585.00;5093204;28;20682;-74
2023/05/05 02:45:12;;;;;;;0.60;0.60;;;;;;;14.78;100.00;100585.81;5091535;28;20263;-75
2023/05/05 02:47:39;;;;;;;0.60;0.60;;;;;;;13.90;100.00;100455.63;5092568;28;20239;-75
2023/05/05 02:50:08;;;;;;;0.70;0.70;;;;;;;14.85;100.00;100579.75;5092867;28;20222;-75
2023/05/05 02:52:37;;;;;;;0.70;0.70;;;;;;;14.78;100.00;100564.94;5093009;28;20237;-75
2023/05/05 02:55:06;;;;;;;0.52;0.52;;;;;;;14.78;100.00;100573.63;5092542;28;20205;-75
2023/05/05 02:57:37;;;;;;;0.60;0.60;;;;;;;14.92;100.00;100578.94;5091828;28;20200;-76
2023/05/05 03:00:13;;;;;;;0.70;0.70;;;;;;;14.70;100.00;100570.09;5092345;28;20229;-75
2023/05/05 03:02:44;;;;;;;0.60;0.60;;;;;;;14.63;100.00;100560.47;5091734;28;20198;-75
2023/05/05 03:05:17;;;;;;;0.60;0.60;;;;;;;14.67;100.00;100569.19;5092646;28;20306;-74
2023/05/05 03:07:53;;;;;;;0.60;0.60;;;;;;;14.79;100.00;100580.63;5092508;28;20198;-75
2023/05/05 03:10:24;;;;;;;0.80;0.80;;;;;;;14.76;100.00;100579.72;5092222;28;20198;-75
2023/05/05 03:12:54;;;;;;;0.90;0.90;;;;;;;14.84;100.00;100588.44;5092520;28;20194;-75
2023/05/05 03:15:25;;;;;;;0.60;0.60;;;;;;;14.87;100.00;100580.66;5091963;28;20208;-74
2023/05/05 03:17:53;;;;;;;0.70;0.70;;;;;;;14.69;100.00;100536.19;5092751;28;20190;-75
2023/05/05 03:20:21;;;;;;;0.60;0.60;;;;;;;14.98;100.00;100580.72;5091823;28;20241;-75
2023/05/05 03:22:50;;;;;;;0.70;0.70;;;;;;;14.94;100.00;100586.78;5057079;28;20205;-75
2023/05/05 03:25:17;;;;;;;2.47;1.77;;;;;;;14.76;100.00;100584.94;5092112;28;20210;-75
2023/05/05 03:27:44;;;;;;;0.70;0.70;;;;;;;14.75;100.00;100563.19;5091829;28;20637;-75
2023/05/05 03:30:12;;;;;;;0.60;0.60;;;;;;;14.99;100.00;100583.31;5092182;28;20613;-75
2023/05/05 03:32:38;;;;;;;0.90;0.90;;;;;;;14.84;100.00;100570.16;5092137;28;20186;-75
2023/05/05 03:35:06;;;;;;;0.70;0.70;;;;;;;14.85;100.00;100585.84;5092231;28;20198;-76
2023/05/05 03:37:33;;;;;;;0.60;0.60;;;;;;;14.28;100.00;100508.03;5092022;28;20202;-75
2023/05/05 03:40:01;;;;;;;0.73;0.73;;;;;;;14.89;100.00;100587.63;5089678;28;20658;-75
2023/05/05 03:42:28;;;;;;;0.73;0.73;;;;;;;14.97;100.00;100585.06;5087347;28;20190;-76
2023/05/05 03:44:54;;;;;;;0.80;0.80;;;;;;;14.91;100.00;100586.78;5091130;28;20198;-76
2023/05/05 03:47:23;;;;;;;1.42;1.42;;;;;;;14.96;100.00;100592.88;5090656;28;20225;-74
2023/05/05 03:49:50;;;;;;;0.60;0.60;;;;;;;14.94;100.00;100590.28;5091642;28;20654;-75
2023/05/05 03:52:16;;;;;;;0.98;0.98;;;;;;;14.78;100.00;100584.06;5091246;28;20267;-76
2023/05/05 03:54:44;;;;;;;0.65;0.65;;;;;;;15.00;100.00;100585.06;5091649;28;20609;-76
2023/05/05 03:57:13;;;;;;;0.70;0.70;;;;;;;15.29;100.00;100593.91;5091961;28;20199;-76
2023/05/05 03:59:39;;;;;;;0.68;0.68;;;;;;;15.18;100.00;100595.59;5091797;28;20198;-75
2023/05/05 04:02:06;;;;;;;0.80;0.80;;;;;;;15.18;100.00;100605.19;5089384;28;20611;-76
2023/05/05 04:04:33;;;;;;;0.60;0.60;;;;;;;15.17;100.00;100604.31;5091574;28;20198;-76
2023/05/05 04:07:00;;;;;;;0.60;0.60;;;;;;;15.26;100.00;100613.94;5091472;28;20198;-77
2023/05/05 04:09:26;;;;;;;0.70;0.70;;;;;;;15.46;100.00;100611.38;5091513;28;20197;-76
2023/05/05 04:11:53;;;;;;;0.73;0.73;;;;;;;15.52;100.00;100616.69;5091658;28;20205;-76
2023/05/05 04:14:21;;;;;;;0.60;0.60;;;;;;;15.54;100.00;100591.41;5090604;28;20905;-75
2023/05/05 04:16:48;;;;;;;0.60;0.60;;;;;;;15.80;100.00;100603.66;5072005;28;20194;-71
2023/05/05 04:19:18;;;;;;;0.60;0.60;;;;;;;15.80;100.00;100613.28;5091435;28;20213;-76
2023/05/05 04:21:44;;;;;;;0.60;0.60;;;;;;;15.76;100.00;100606.31;5091298;28;20222;-73
2023/05/05 04:24:11;;;;;;;0.82;0.82;;;;;;;15.83;100.00;100610.69;5091222;28;20210;-73
2023/05/05 04:26:38;;;;;;;0.93;0.93;;;;;;;15.69;100.00;100589.75;5091076;28;20244;-67
2023/05/05 04:29:05;;;;;;;0.70;0.70;;;;;;;15.84;100.00;100609.78;5091008;28;20197;-67
2023/05/05 04:31:33;;;;;;;0.65;0.65;;;;;;;15.85;100.00;100611.53;5091094;28;20271;-67
2023/05/05 04:33:59;;;;;;;0.60;0.60;;;;;;;15.65;100.00;100615.84;5091430;28;20194;-68
2023/05/05 04:36:27;;;;;;;0.60;0.60;;;;;;;15.83;100.00;100618.53;5091673;28;20235;-68
2023/05/05 04:38:53;;;;;;;0.70;0.70;;;;;;;15.76;100.00;100603.69;5090076;28;20282;-71
2023/05/05 04:41:20;;;;;;;0.57;0.57;;;;;;;15.90;100.00;100614.16;5090772;28;20225;-69
2023/05/05 04:43:47;;;;;;;0.70;0.70;;;;;;;15.99;100.00;100607.22;5090823;28;20201;-74
2023/05/05 04:46:14;;;;;;;0.60;0.60;;;;;;;16.22;100.00;100623.81;5055204;28;20226;-74
2023/05/05 04:48:42;;;;;;;0.60;0.60;;;;;;;16.29;100.00;100620.34;5055776;28;20222;-74
2023/05/05 04:51:08;;;;;;;0.60;0.60;;;;;;;16.13;100.00;100613.31;5089857;28;20675;-75
2023/05/05 04:53:35;;;;;;;0.60;0.60;;;;;;;16.35;100.00;100616.81;5088112;28;20625;-74
2023/05/05 04:56:02;;;;;;;1.05;1.05;;;;;;;16.44;100.00;100613.34;5090634;28;20291;-75
2023/05/05 04:58:29;;;;;;;0.60;0.60;;;;;;;16.60;100.00;100610.75;5090540;28;20669;-75
2023/05/05 05:00:56;;;;;;;0.50;0.50;;;;;;;16.59;100.00;100623.81;5090439;28;20218;-74
2023/05/05 05:03:23;;;;;;;0.60;0.60;;;;;;;16.65;100.00;100626.47;5091023;28;20210;-73
2023/05/05 05:05:51;;;;;;;0.60;0.60;;;;;;;16.59;100.00;100569.72;5090571;28;20190;-73
2023/05/05 05:08:18;;;;;;;0.60;0.60;;;;;;;16.62;100.00;100603.75;5059476;28;20210;-74
2023/05/05 05:10:45;;;;;;;0.70;0.70;;;;;;;16.61;100.00;100616.84;5090143;28;20760;-75
2023/05/05 05:13:12;;;;;;;0.60;0.60;;;;;;;16.69;100.00;100617.72;5090646;28;20220;-74
2023/05/05 05:15:39;;;;;;;0.60;0.60;;;;;;;16.80;100.00;100629.06;5089159;28;20201;-76
2023/05/05 05:18:06;;;;;;;0.60;0.60;;;;;;;16.57;100.00;100630.81;5054481;28;20202;-67
2023/05/05 05:20:33;;;;;;;0.70;0.70;;;;;;;16.70;100.00;100622.06;5089103;28;20280;-74
2023/05/05 05:23:01;;;;;;;0.68;0.68;;;;;;;16.93;100.00;100630.78;5084540;28;20649;-70
2023/05/05 05:25:28;;;;;;;0.68;0.68;;;;;;;16.68;100.00;100631.69;5088924;28;20205;-72
2023/05/05 05:27:55;;;;;;;0.82;0.82;;;;;;;16.68;100.00;100629.94;5088524;28;20287;-65
2023/05/05 05:30:22;;;;;;;0.60;0.60;;;;;;;16.59;100.00;100618.59;5090004;28;20202;-73
2023/05/05 05:32:48;;;;;;;0.60;0.60;;;;;;;16.89;100.00;100630.78;5044132;28;20210;-72
2023/05/05 05:35:15;;;;;;;0.80;0.80;;;;;;;16.78;100.00;100625.56;5089211;28;20270;-73
2023/05/05 05:37:42;;;;;;;0.60;0.60;;;;;;;16.68;100.00;100629.06;5089112;28;20634;-72
2023/05/05 05:40:11;;;;;;;0.70;0.70;;;;;;;16.85;100.00;100612.44;5090299;28;20209;-71
2023/05/05 05:42:38;;;;;;;0.57;0.57;;;;;;;17.10;100.00;100628.09;5090193;28;20618;-72
2023/05/05 05:45:06;;;;;;;0.50;0.50;;;;;;;17.61;100.00;100632.31;5006404;28;20222;-74
2023/05/05 05:47:33;;;;;;;0.85;0.85;;;;;;;17.63;100.00;100630.56;5018373;28;20239;-75
2023/05/05 05:50:00;;;;;;;0.63;0.63;;;;;;;17.61;100.00;100632.31;5087317;28;20629;-74
2023/05/05 05:52:27;;;;;;;0.60;0.60;;;;;;;17.61;100.00;100634.94;5094439;28;20233;-70
2023/05/05 05:54:54;;;;;;;0.60;0.60;;;;;;;17.83;100.00;100623.47;5094007;28;20205;-69
2023/05/05 05:57:23;;;;;;;0.90;0.90;;;;;;;17.86;100.00;100623.44;5094698;28;20198;-70
2023/05/05 05:59:50;;;;;;;0.60;0.60;;;;;;;17.86;100.00;100628.69;5094561;28;20241;-75
2023/05/05 06:02:17;;;;;;;0.60;0.60;;;;;;;17.91;100.00;100621.66;5094127;28;20313;-74
2023/05/05 06:04:44;;;;;;;0.70;0.70;;;;;;;17.96;100.00;100625.13;5094362;28;20202;-75
2023/05/05 06:07:11;;;;;;;0.70;0.70;;;;;;;18.17;100.00;100640.72;5092792;28;20190;-74
2023/05/05 06:09:38;;;;;;;0.70;0.70;;;;;;;18.05;100.00;100627.69;5082376;28;20195;-75
2023/05/05 06:12:05;;;;;;;0.60;0.60;;;;;;;18.24;100.00;100641.56;5092310;28;20194;-75
2023/05/05 06:14:33;;;;;;;0.50;0.50;;;;;;;18.39;100.00;100643.19;5092299;28;20194;-76
2023/05/05 06:17:00;;;;;;;0.80;0.80;;;;;;;18.42;100.00;100640.53;5093981;28;20210;-75
2023/05/05 06:19:26;;;;;;;0.60;0.60;;;;;;;18.30;100.00;100636.25;5091369;28;20202;-74
2023/05/05 06:21:53;;;;;;;2.70;2.35;;;;;;;18.24;100.00;100641.56;5090673;28;20230;-74
2023/05/05 06:24:20;;;;;;;0.60;0.60;;;;;;;18.70;100.00;100647.34;5091957;28;20205;-73
2023/05/05 06:26:47;;;;;;;0.60;0.60;;;;;;;19.02;100.00;100666.28;5093954;28;20206;-74
2023/05/05 06:29:13;;;;;;;0.60;0.60;;;;;;;19.05;100.00;100660.16;5093569;28;20206;-74
2023/05/05 06:31:42;;;;;;;0.60;0.60;;;;;;;19.45;100.00;100657.97;5089935;28;20233;-73
2023/05/05 06:34:08;;;;;;;0.63;0.63;;;;;;;19.77;100.00;100655.81;5082711;28;20222;-74
2023/05/05 06:36:35;;;;;;;0.50;0.50;;;;;;;19.52;100.00;100662.25;5086555;28;20198;-73
2023/05/05 06:39:02;;;;;;;0.50;0.50;;;;;;;19.32;100.00;100657.22;5086546;28;20202;-73
2023/05/05 06:41:29;;;;;;;0.90;0.90;;;;;;;19.81;98.83;100654.88;5056878;28;20214;-74
2023/05/05 06:43:55;;;;;;;0.60;0.60;;;;;;;19.63;99.53;100657.75;5050983;28;20214;-74
2023/05/05 06:46:22;;;;;;;0.60;0.60;;;;;;;19.83;98.19;100653.13;5091959;28;20230;-74
2023/05/05 06:48:50;;;;;;;0.57;0.57;;;;;;;19.91;96.31;100655.59;5088272;28;20206;-74
2023/05/05 06:51:17;;;;;;;0.70;0.70;;;;;;;19.97;95.50;100656.44;5089288;28;20206;-76
2023/05/05 06:53:44;;;;;;;0.60;0.60;;;;;;;19.82;95.39;100661.88;5090494;28;20195;-74
2023/05/05 06:56:11;;;;;;;0.60;0.60;;;;;;;19.99;93.91;100662.53;5077692;28;20252;-76
2023/05/05 06:58:38;;;;;;;0.60;0.60;;;;;;;20.29;91.34;100666.50;5093248;28;20241;-74
2023/05/05 07:01:05;;;;;;;0.60;0.60;;;;;;;20.60;89.48;100666.88;5071871;28;20213;-74
2023/05/05 07:03:31;;;;;;;0.60;0.60;;;;;;;20.30;88.49;100664.75;5092112;28;20194;-75
2023/05/05 07:05:59;;;;;;;0.52;0.52;;;;;;;20.09;91.06;100666.75;5057224;28;20202;-74
2023/05/05 07:08:26;;;;;;;0.90;0.90;;;;;;;20.66;88.78;100675.56;5092951;28;20201;-74
2023/05/05 07:10:53;;;;;;;0.60;0.60;;;;;;;20.77;85.63;100670.09;5092684;28;20198;-74
2023/05/05 07:13:20;;;;;;;0.65;0.65;;;;;;;20.96;84.79;100684.72;5092891;28;20661;-74
2023/05/05 07:15:46;;;;;;;0.60;0.60;;;;;;;20.65;86.50;100673.81;5092673;28;20657;-73
2023/05/05 07:18:13;;;;;;;0.50;0.50;;;;;;;20.39;85.80;100596.09;5092670;28;20267;-75
2023/05/05 07:20:41;;;;;;;0.60;0.60;;;;;;;21.04;83.49;100677.53;5092377;28;20201;-74
2023/05/05 07:23:10;;;;;;;0.70;0.70;;;;;;;21.25;83.02;100671.91;5084126;28;20609;-74
2023/05/05 07:25:37;;;;;;;0.60;0.60;;;;;;;21.26;81.37;100673.63;5086659;28;20194;-74
2023/05/05 07:28:06;;;;;;;0.60;0.60;;;;;;;21.13;81.99;100664.22;5057069;28;20198;-74
2023/05/05 07:30:33;;;;;;;0.50;0.50;;;;;;;21.15;80.85;100667.66;5092307;28;20198;-74
2023/05/05 07:33:00;;;;;;;0.60;0.60;;;;;;;21.13;80.79;100677.41;5092461;28;20198;-73
2023/05/05 07:35:27;;;;;;;0.80;0.80;;;;;;;20.95;80.30;100677.69;5092570;28;20211;-74
2023/05/05 07:37:54;;;;;;;0.60;0.60;;;;;;;21.65;78.93;100686.94;5057275;28;20194;-73
2023/05/05 07:40:22;;;;;;;0.50;0.50;;;;;;;20.57;83.64;100669.56;5092227;28;20190;-73
2023/05/05 07:42:49;;;;;;;0.52;0.52;;;;;;;20.36;87.65;100680.47;5092170;28;20709;-74
2023/05/05 07:45:16;;;;;;;0.80;0.80;;;;;;;20.49;87.67;100680.22;5092237;28;20650;-73
2023/05/05 07:47:43;;;;;;;0.60;0.60;;;;;;;20.62;87.58;100655.41;5092165;28;20237;-73
2023/05/05 07:50:10;;;;;;;1.08;1.08;;;;;;;20.74;85.53;100668.41;5092113;28;20202;-74
2023/05/05 07:52:37;;;;;;;0.93;0.93;;;;;;;20.63;85.08;100687.91;5092027;28;20198;-73
2023/05/05 07:55:04;;;;;;;0.60;0.60;;;;;;;20.37;86.71;100684.84;5092012;28;20206;-74
2023/05/05 07:57:32;;;;;;;0.63;0.63;;;;;;;21.39;83.77;100695.38;5092044;28;20206;-74
2023/05/05 07:59:59;;;;;;;0.60;0.60;;;;;;;21.01;82.63;100682.00;5072941;28;20202;-73
2023/05/05 08:02:26;;;;;;;0.60;0.60;;;;;;;21.05;83.41;100686.28;5091785;28;20723;-74
2023/05/05 08:04:53;;;;;;;0.60;0.60;;;;;;;21.12;81.14;100675.66;5091634;28;20194;-75
2023/05/05 08:07:19;;;;;;;0.55;0.55;;;;;;;21.32;80.74;100690.25;5091586;28;20202;-73
2023/05/05 08:09:46;;;;;;;0.85;0.85;;;;;;;21.28;80.42;100686.78;5091598;28;20263;-73
2023/05/05 08:12:14;;;;;;;0.60;0.60;;;;;;;21.25;80.45;100693.00;5091618;28;20209;-74
2023/05/05 08:14:42;;;;;;;0.60;0.60;;;;;;;21.54;80.06;100667.81;5091706;28;20354;-74
2023/05/05 08:17:09;;;;;;;0.60;0.60;;;;;;;21.31;78.03;100678.81;5091777;28;20280;-74
2023/05/05 08:19:35;;;;;;;0.60;0.60;;;;;;;21.94;71.33;100695.13;5091704;28;20256;-74
2023/05/05 08:22:02;;;;;;;0.65;0.65;;;;;;;21.87;66.81;100693.50;5072683;28;20237;-74
2023/05/05 08:24:29;;;;;;;0.60;0.60;;;;;;;21.81;67.93;100691.00;5091370;28;20205;-74
2023/05/05 08:26:56;;;;;;;0.70;0.70;;;;;;;22.14;69.06;100700.88;5091346;28;20205;-74
2023/05/05 08:29:23;;;;;;;0.50;0.50;;;;;;;21.71;66.75;100698.25;5091622;28;20258;-74
2023/05/05 08:31:51;;;;;;;0.60;0.60;;;;;;;21.93;64.26;100700.47;5091270;28;20346;-73
2023/05/05 08:34:18;;;;;;;0.60;0.60;;;;;;;22.06;63.93;100694.88;5055940;28;20722;-74
2023/05/05 08:36:44;;;;;;;0.70;0.70;;;;;;;22.44;64.83;100695.78;5055641;28;20706;-74
2023/05/05 08:39:11;;;;;;;0.60;0.60;;;;;;;21.64;69.83;100693.13;5090356;28;20205;-74
2023/05/05 08:41:38;;;;;;;0.55;0.55;;;;;;;21.06;72.52;100701.22;5090620;28;20213;-74
2023/05/05 08:44:05;;;;;;;0.70;0.70;;;;;;;21.46;73.64;100704.91;5090987;28;20661;-74
2023/05/05 08:46:32;;;;;;;0.60;0.60;;;;;;;21.87;69.21;100692.66;5091233;28;20234;-74
2023/05/05 08:49:02;;;;;;;0.63;0.63;;;;;;;21.99;66.98;100677.44;5071868;28;20606;-74
2023/05/05 08:51:33;;;;;;;0.70;0.70;;;;;;;22.54;65.36;100707.88;5090886;28;20206;-74
2023/05/05 08:54:03;;;;;;;0.70;0.70;;;;;;;22.83;62.48;100705.38;5091054;28;20213;-75
2023/05/05 08:56:35;;;;;;;0.60;0.60;;;;;;;22.95;60.65;100694.50;5080949;28;20214;-76
2023/05/05 08:59:02;;;;;;;0.60;0.60;;;;;;;22.96;61.29;100700.69;5086215;28;20209;-76
2023/05/05 09:01:31;;;;;;;0.60;0.60;;;;;;;23.19;60.51;100704.44;5086327;28;20621;-77
2023/05/05 09:04:00;;;;;;;0.60;0.60;;;;;;;22.08;66.09;100692.22;5070439;28;20230;-77
2023/05/05 09:06:27;;;;;;;0.60;0.60;;;;;;;22.23;66.90;100695.34;5070501;28;20213;-77
2023/05/05 09:08:54;;;;;;;0.60;0.60;;;;;;;22.39;64.62;100676.50;5086993;28;20198;-76
2023/05/05 09:11:22;;;;;;;0.63;0.63;;;;;;;21.91;68.54;100684.63;5090821;28;20197;-76
2023/05/05 09:13:48;;;;;;;0.60;0.60;;;;;;;21.81;68.74;100698.91;5055156;28;20677;-75
2023/05/05 09:16:15;;;;;;;0.60;0.60;;;;;;;21.82;72.91;100695.38;5070669;28;20873;-72
2023/05/05 09:18:44;;;;;;;0.50;0.50;;;;;;;22.30;70.03;100692.56;5070616;28;20203;-76
2023/05/05 09:21:23;;;;;;;0.60;0.60;;;;;;;22.94;65.65;100687.47;5070107;28;20199;-74
2023/05/05 09:24:07;;;;;;;0.60;0.60;;;;;;;23.90;62.69;100688.31;5083052;28;20232;-75
2023/05/05 09:26:36;;;;;;;1.10;1.10;;;;;;;23.73;60.21;100690.63;5072939;28;20626;-76
2023/05/05 09:29:04;;;;;;;0.60;0.60;;;;;;;23.86;61.27;100699.97;5074255;28;20210;-76
2023/05/05 09:31:32;;;;;;;0.70;0.70;;;;;;;23.15;62.48;100697.50;5074233;28;20210;-76
2023/05/05 09:34:00;;;;;;;0.60;0.60;;;;;;;23.13;64.50;100691.38;5074720;28;20210;-76
2023/05/05 09:36:46;;;;;;;0.60;0.60;;;;;;;22.95;65.19;100689.22;5074471;28;20241;-76
2023/05/05 09:39:13;;;;;;;0.90;0.90;;;;;;;22.31;66.48;100678.47;5013002;28;20236;-75
2023/05/05 09:41:43;;;;;;;0.60;0.60;;;;;;;22.27;67.62;100684.72;5012711;28;20635;-70
2023/05/05 09:44:10;;;;;;;0.60;0.60;;;;;;;22.75;65.86;100683.59;5012068;28;20260;-71
2023/05/05 09:46:37;;;;;;;0.55;0.55;;;;;;;22.75;66.12;100686.22;5011897;28;20628;-69
2023/05/05 09:49:15;;;;;;;0.60;0.60;;;;;;;22.18;66.09;100668.19;5021849;28;20204;-70
2023/05/05 09:51:43;;;;;;;0.75;0.75;;;;;;;22.40;67.87;100672.97;5014238;28;20671;-70
2023/05/05 09:54:22;;;;;;;0.60;0.60;;;;;;;23.01;66.91;100677.63;4973607;28;20594;-70
2023/05/05 09:56:49;;;;;;;0.60;0.60;;;;;;;22.93;65.67;100669.03;5017614;28;20637;-69
2023/05/05 09:59:15;;;;;;;0.60;0.60;;;;;;;23.11;63.68;100690.56;5031727;28;20333;-68
2023/05/05 10:01:43;;;;;;;0.60;0.60;;;;;;;22.89;64.10;100692.03;4997332;28;20680;-70
2023/05/05 10:04:23;;;;;;;1.00;1.00;;;;;;;22.89;62.90;100678.81;5024238;28;20248;-70
2023/05/05 10:06:51;;;;;;;0.60;0.60;;;;;;;22.87;63.57;100679.72;4958647;28;20415;-75
2023/05/05 10:09:18;;;;;;;0.52;0.52;;;;;;;23.16;62.83;100671.91;5011772;28;20214;-75
2023/05/05 10:11:46;;;;;;;0.60;0.60;;;;;;;23.12;63.29;100679.06;5011768;28;20209;-75
2023/05/05 10:14:14;;;;;;;0.60;0.60;;;;;;;23.33;61.41;100627.31;5011648;28;20287;-74
2023/05/05 10:16:47;;;;;;;0.63;0.63;;;;;;;23.31;61.88;100671.50;5061507;28;20285;-75
2023/05/05 10:19:15;;;;;;;0.60;0.60;;;;;;;23.67;60.74;100680.22;5073872;28;20234;-74
2023/05/05 10:21:47;;;;;;;0.60;0.60;;;;;;;24.24;58.81;100668.78;5085434;28;20241;-75
2023/05/05 10:24:23;;;;;;;1.45;1.45;;;;;;;24.51;58.14;100667.88;5093264;28;20222;-75
2023/05/05 10:26:51;;;;;;;0.60;0.60;;;;;;;24.63;57.11;100664.84;5081200;28;20572;-75
2023/05/05 10:29:30;;;;;;;0.60;0.60;;;;;;;24.43;56.05;100662.00;5073113;28;20206;-74
2023/05/05 10:32:02;;;;;;;0.70;0.70;;;;;;;23.18;59.56;100638.34;5085487;28;20247;-75
2023/05/05 10:34:35;;;;;;;0.70;0.70;;;;;;;23.34;59.64;100649.34;5079252;28;20267;-75
2023/05/05 10:37:03;;;;;;;0.60;0.60;;;;;;;23.73;58.77;100637.66;5079952;28;20222;-75
2023/05/05 10:39:32;;;;;;;0.70;0.70;;;;;;;23.89;59.99;100648.66;5058797;28;20198;-76
2023/05/05 10:42:01;;;;;;;0.80;0.80;;;;;;;23.88;57.45;100637.19;5082530;28;20199;-75
2023/05/05 10:44:30;;;;;;;0.90;0.90;;;;;;;23.85;57.60;100642.59;5089964;28;20221;-77
2023/05/05 10:46:58;;;;;;;0.75;0.75;;;;;;;23.99;58.05;100658.06;5083326;28;20226;-75
2023/05/05 10:49:38;;;;;;;0.63;0.63;;;;;;;24.17;57.70;100662.81;5086896;28;20238;-75
2023/05/05 10:52:13;;;;;;;0.90;0.90;;;;;;;24.08;57.41;100642.72;5082853;28;20210;-75
2023/05/05 10:54:47;;;;;;;0.52;0.52;;;;;;;23.95;58.02;100657.28;5056741;28;20661;-75
2023/05/05 10:57:16;;;;;;;0.60;0.60;;;;;;;23.61;59.08;100646.84;5082812;28;20610;-75
2023/05/05 10:59:43;;;;;;;0.60;0.60;;;;;;;23.87;57.92;100645.16;5078471;28;20281;-75
2023/05/05 11:02:28;;;;;;;0.77;0.77;;;;;;;24.02;57.58;100653.53;5092962;28;20205;-75
2023/05/05 11:05:09;;;;;;;0.70;0.70;;;;;;;23.84;57.53;100654.09;5078938;28;20195;-74
2023/05/05 11:07:36;;;;;;;0.50;0.50;;;;;;;23.39;59.67;100637.75;5072427;28;20256;-76
2023/05/05 11:10:06;;;;;;;0.63;0.63;;;;;;;23.64;59.61;100649.41;5086356;28;20205;-78
2023/05/05 11:12:53;;;;;;;0.60;0.60;;;;;;;23.71;59.11;100650.06;5072344;28;20207;-75
2023/05/05 11:15:36;;;;;;;0.70;0.70;;;;;;;23.35;59.30;100640.50;5072062;28;20202;-76
2023/05/05 11:18:03;;;;;;;1.13;1.13;;;;;;;23.34;59.98;100644.06;5072203;28;20568;-76
2023/05/05 11:21:02;;;;;;;1.27;1.15;;;;;;;23.67;58.55;100632.53;5072098;28;20209;-77
2023/05/05 11:23:30;;;;;;;0.55;0.55;;;;;;;23.29;59.19;100631.00;5072385;28;20223;-69
2023/05/05 11:25:59;;;;;;;0.50;0.50;;;;;;;22.86;60.05;100620.72;5072362;28;20662;-77
2023/05/05 11:28:29;;;;;;;0.65;0.65;;;;;;;22.80;59.77;100634.06;5072153;28;20293;-77